Time;durP1;ratioP1;P1;durP2;ratioP2;P2;SDS_P1;SDS_P2;PMS_P1;PMS_P2;Temp;Humidity;BMP_temperature;BMP_pressure;BME280_temperature;BME280_humidity;BME280_pressure;Samples;Min_cycle;Max_cycle;Signal;HPM_P1;HPM_P2
2021/09/05 00:00:21;;;;;;;3.45;3.05;;;;;;;18.35;55.65;100093.19;4937667;29;20096;-90
2021/09/05 00:02:48;;;;;;;4.32;3.13;;;;;;;18.45;56.24;100098.53;4938320;29;20519;-92
2021/09/05 00:05:15;;;;;;;10.75;4.22;;;;;;;18.47;55.52;100093.94;4957894;29;20046;-94
2021/09/05 00:07:42;;;;;;;4.63;3.22;;;;;;;18.51;56.18;100092.72;4939145;29;20052;-90
2021/09/05 00:10:11;;;;;;;5.90;3.10;;;;;;;18.51;55.32;100100.63;4940170;29;20166;-90
2021/09/05 00:12:44;;;;;;;4.78;3.58;;;;;;;18.45;55.20;100095.88;4938515;29;20412;-91
2021/09/05 00:15:12;;;;;;;4.82;3.45;;;;;;;18.54;55.24;100093.31;4938415;29;20055;-89
2021/09/05 00:17:43;;;;;;;4.38;3.35;;;;;;;18.51;55.45;100093.56;4903801;29;20054;-89
2021/09/05 00:20:11;;;;;;;4.53;3.58;;;;;;;18.47;55.35;100088.66;4936477;29;20420;-90
2021/09/05 00:22:46;;;;;;;3.85;3.55;;;;;;;18.45;55.85;100090.63;4936439;29;20258;-89
2021/09/05 00:25:14;;;;;;;9.57;4.63;;;;;;;18.44;55.82;100086.31;4919828;29;20040;-90
2021/09/05 00:27:43;;;;;;;4.03;3.05;;;;;;;18.44;55.43;100086.31;4920115;29;20450;-89
2021/09/05 00:30:10;;;;;;;7.72;3.40;;;;;;;18.44;55.73;100094.22;4951425;29;20035;-90
2021/09/05 00:32:39;;;;;;;3.38;2.92;;;;;;;18.09;56.73;100082.19;4919967;29;20060;-90
2021/09/05 00:35:07;;;;;;;4.78;3.35;;;;;;;17.73;58.50;100094.81;4950413;29;20043;-89
2021/09/05 00:37:39;;;;;;;3.95;3.55;;;;;;;17.75;58.10;100092.91;4936159;29;20090;-90
2021/09/05 00:40:08;;;;;;;4.53;3.20;;;;;;;17.76;58.14;100091.13;4935615;29;20538;-90
2021/09/05 00:42:40;;;;;;;6.65;3.97;;;;;;;17.82;58.07;100089.78;4950368;29;20044;-89
2021/09/05 00:45:11;;;;;;;4.28;3.70;;;;;;;17.86;58.05;100097.31;4935860;29;20048;-91
2021/09/05 00:47:40;;;;;;;5.43;3.10;;;;;;;17.86;58.18;100091.19;4936341;29;20528;-92
2021/09/05 00:50:09;;;;;;;3.90;3.45;;;;;;;17.84;57.89;100087.84;4919982;29;20048;-92
2021/09/05 00:52:42;;;;;;;5.63;3.45;;;;;;;17.86;57.83;100089.41;4940956;29;20048;-92
2021/09/05 00:55:10;;;;;;;4.57;3.30;;;;;;;17.91;57.56;100089.84;4925616;29;20040;-93
2021/09/05 00:57:43;;;;;;;3.38;2.97;;;;;;;17.91;57.71;100094.28;4940903;29;20044;-92
2021/09/05 01:00:18;;;;;;;4.18;3.15;;;;;;;17.96;58.20;100094.75;4925046;29;20056;-89
2021/09/05 01:02:47;;;;;;;4.00;3.53;;;;;;;17.96;57.43;100102.66;4935751;29;20054;-91
2021/09/05 01:05:16;;;;;;;3.65;3.00;;;;;;;17.99;57.65;100097.13;4923860;29;20043;-89
2021/09/05 01:07:43;;;;;;;5.55;3.42;;;;;;;18.02;57.41;100096.88;4955040;29;20248;-91
2021/09/05 01:10:13;;;;;;;5.32;3.13;;;;;;;18.10;57.31;100101.50;4956027;29;20062;-91
2021/09/05 01:12:40;;;;;;;4.38;3.20;;;;;;;18.09;57.01;100097.19;4923715;29;20055;-91
2021/09/05 01:15:08;;;;;;;4.35;3.20;;;;;;;18.11;57.71;100097.88;4941384;29;20511;-91
2021/09/05 01:17:39;;;;;;;4.07;3.33;;;;;;;18.14;57.12;100095.00;4924049;29;20541;-91
2021/09/05 01:20:24;;;;;;;3.55;3.25;;;;;;;17.95;57.28;100100.97;4939891;29;20603;-91
2021/09/05 01:23:11;;;;;;;4.10;3.47;;;;;;;17.72;58.49;100098.44;4938677;29;20430;-90
2021/09/05 01:25:56;;;;;;;4.05;3.53;;;;;;;17.75;58.46;100102.63;4952786;29;20047;-89
2021/09/05 01:28:46;;;;;;;3.58;3.15;;;;;;;17.75;58.73;100102.63;4929559;29;20047;-92
2021/09/05 01:31:43;;;;;;;5.28;4.03;;;;;;;17.75;58.40;100111.38;4937258;29;20107;-94
2021/09/05 01:34:36;;;;;;;5.03;3.35;;;;;;;17.75;58.43;100110.53;4938418;29;20051;-94
2021/09/05 01:37:38;;;;;;;4.25;3.22;;;;;;;17.72;58.43;100103.69;4954702;29;20047;-93
2021/09/05 01:40:59;;;;;;;3.22;2.90;;;;;;;17.89;58.62;100112.03;4907297;29;20041;-92
2021/09/05 01:43:46;;;;;;;6.38;3.67;;;;;;;17.90;57.74;100100.53;4938659;29;20055;-92
2021/09/05 01:46:41;;;;;;;3.80;2.95;;;;;;;17.87;57.63;100103.41;4940497;29;20127;-94
2021/09/05 01:49:50;;;;;;;6.07;2.97;;;;;;;17.70;58.44;100102.97;4947204;29;20420;-91
2021/09/05 01:52:39;;;;;;;4.15;3.20;;;;;;;17.18;60.48;100107.19;4923408;29;20063;-93
2021/09/05 01:55:25;;;;;;;3.22;2.80;;;;;;;17.33;60.10;100109.56;4925944;29;20427;-90
2021/09/05 01:58:14;;;;;;;3.90;2.88;;;;;;;17.52;59.24;100110.59;4947576;29;20123;-91
2021/09/05 02:01:02;;;;;;;5.13;3.60;;;;;;;17.65;58.56;100114.84;4944149;29;20063;-90
2021/09/05 02:04:05;;;;;;;3.83;3.15;;;;;;;17.77;58.41;100117.34;4933609;29;20095;-90
2021/09/05 02:06:55;;;;;;;10.65;3.80;;;;;;;17.88;57.71;100120.91;4920698;29;20051;-91
2021/09/05 02:10:00;;;;;;;4.32;3.38;;;;;;;17.89;57.67;100109.38;4933799;29;20043;-91
2021/09/05 02:12:59;;;;;;;6.28;3.45;;;;;;;18.09;57.16;100129.69;4953420;29;20126;-91
2021/09/05 02:16:00;;;;;;;4.88;3.90;;;;;;;18.07;56.74;100126.34;4903599;29;20406;-91
2021/09/05 02:18:46;;;;;;;5.93;3.10;;;;;;;18.05;56.98;100125.59;4936831;29;20047;-92
2021/09/05 02:21:33;;;;;;;3.33;2.97;;;;;;;18.09;56.27;100129.69;4938395;29;20048;-92
2021/09/05 02:24:23;;;;;;;7.38;3.58;;;;;;;18.11;57.54;100126.91;4935332;29;20494;-91
2021/09/05 02:27:22;;;;;;;4.85;3.40;;;;;;;18.30;56.62;100133.16;4937220;29;20067;-86
2021/09/05 02:30:06;;;;;;;5.88;3.20;;;;;;;18.28;56.03;100132.47;4919699;29;20494;-88
2021/09/05 02:32:48;;;;;;;3.63;3.33;;;;;;;18.27;56.19;100133.44;4951825;29;20052;-86
2021/09/05 02:35:37;;;;;;;8.30;3.78;;;;;;;18.16;55.93;100125.56;4916418;29;20140;-86
2021/09/05 02:38:22;;;;;;;3.03;2.72;;;;;;;18.28;56.61;100132.47;4918046;29;20135;-89
2021/09/05 02:41:08;;;;;;;10.00;3.67;;;;;;;18.21;56.42;100123.38;4934717;29;20052;-91
2021/09/05 02:44:01;;;;;;;5.70;3.60;;;;;;;18.22;56.26;100124.22;4938848;29;20418;-93
2021/09/05 02:46:45;;;;;;;5.87;3.10;;;;;;;18.20;56.57;100124.34;4923260;29;20127;-94
2021/09/05 02:49:30;;;;;;;4.85;3.47;;;;;;;18.24;55.95;100123.13;4912640;29;20044;-94
2021/09/05 02:52:19;;;;;;;4.60;3.40;;;;;;;18.21;56.50;100112.81;4891733;29;20044;-95
2021/09/05 02:55:07;;;;;;;7.55;3.55;;;;;;;18.22;56.10;100114.50;4921575;29;20048;-95
2021/09/05 02:57:57;;;;;;;4.65;3.95;;;;;;;18.19;56.08;100122.66;4934613;29;20040;-93
2021/09/05 03:01:02;;;;;;;4.82;3.65;;;;;;;18.19;56.02;100127.94;4923645;29;20574;-95
2021/09/05 03:04:06;;;;;;;6.13;3.58;;;;;;;18.20;56.17;100121.69;4929962;29;20047;-94
2021/09/05 03:07:02;;;;;;;6.22;4.38;;;;;;;18.19;55.90;100117.38;4936781;29;20043;-95
2021/09/05 03:09:51;;;;;;;7.13;3.63;;;;;;;18.22;56.10;100119.78;4936461;29;20047;-95
2021/09/05 03:12:38;;;;;;;4.72;3.72;;;;;;;18.32;55.91;100123.31;4933081;29;20142;-90
2021/09/05 03:15:23;;;;;;;3.95;3.55;;;;;;;18.27;55.91;100117.59;4917743;29;20170;-90
2021/09/05 03:18:14;;;;;;;5.00;3.88;;;;;;;18.16;56.42;100115.00;4948789;29;20087;-90
2021/09/05 03:21:01;;;;;;;5.18;3.70;;;;;;;18.12;56.93;100124.16;4939923;29;20040;-88
2021/09/05 03:23:46;;;;;;;6.10;3.88;;;;;;;18.06;56.81;100124.66;4938127;29;20067;-90
2021/09/05 03:26:42;;;;;;;4.28;3.88;;;;;;;17.83;57.95;100129.19;4934865;29;20048;-90
2021/09/05 03:29:16;;;;;;;10.00;3.53;;;;;;;17.68;58.62;100131.22;4939287;29;20048;-94
2021/09/05 03:32:09;;;;;;;4.10;3.38;;;;;;;17.59;58.66;100129.38;4905205;29;20048;-93
2021/09/05 03:34:58;;;;;;;9.27;3.60;;;;;;;17.51;59.13;100124.69;4941357;29;20083;-93
2021/09/05 03:37:43;;;;;;;3.75;3.35;;;;;;;17.48;59.66;100132.03;4951042;29;20081;-93
2021/09/05 03:40:33;;;;;;;7.63;3.28;;;;;;;17.46;59.41;100132.13;4941400;29;20056;-92
2021/09/05 03:43:20;;;;;;;7.28;3.80;;;;;;;17.40;60.12;100137.06;4938195;29;20142;-93
2021/09/05 03:46:06;;;;;;;6.10;3.78;;;;;;;17.31;60.17;100124.63;4919426;29;20051;-94
2021/09/05 03:48:55;;;;;;;4.30;3.45;;;;;;;17.45;59.24;100125.19;4920089;29;20060;-95
2021/09/05 03:51:23;;;;;;;4.03;3.58;;;;;;;17.41;59.62;100122.94;4945037;29;20074;-94
2021/09/05 03:53:53;;;;;;;3.83;3.30;;;;;;;17.29;59.76;100124.75;4926491;29;20067;-93
2021/09/05 03:56:22;;;;;;;6.22;3.42;;;;;;;17.19;60.49;100129.09;4926876;29;20146;-94
2021/09/05 03:58:55;;;;;;;8.15;3.88;;;;;;;17.09;60.98;100131.59;4927188;29;20047;-94
2021/09/05 04:01:48;;;;;;;3.70;3.33;;;;;;;17.05;61.01;100127.56;4927928;29;20048;-94
2021/09/05 04:04:23;;;;;;;4.85;4.20;;;;;;;16.96;61.18;100130.91;4944197;29;20130;-95
2021/09/05 04:07:00;;;;;;;4.22;3.40;;;;;;;17.05;60.98;100132.81;4903084;29;20063;-93
2021/09/05 04:12:17;;;;;;;4.50;3.58;;;;;;;17.07;61.13;100136.16;4959791;28;20042;-93
2021/09/05 04:14:43;;;;;;;4.13;3.67;;;;;;;16.97;61.57;100122.88;4959880;28;20086;-94
2021/09/05 04:17:15;;;;;;;3.97;3.53;;;;;;;16.79;62.61;100132.22;4941223;29;20048;-94
2021/09/05 04:19:42;;;;;;;4.45;3.22;;;;;;;16.68;63.21;100140.91;4942511;29;20398;-94
2021/09/05 04:22:09;;;;;;;5.97;3.53;;;;;;;16.73;62.63;100138.81;4941051;29;20059;-95
2021/09/05 04:24:36;;;;;;;6.55;3.50;;;;;;;16.86;62.32;100143.94;4939699;29;20056;-94
2021/09/05 04:27:03;;;;;;;8.80;3.75;;;;;;;16.83;62.14;100143.34;4940214;29;20040;-91
2021/09/05 04:29:30;;;;;;;9.60;4.95;;;;;;;16.77;62.36;100149.91;4941593;29;20051;-93
2021/09/05 04:31:57;;;;;;;11.77;4.30;;;;;;;16.76;62.47;100151.72;4924524;29;20047;-91
2021/09/05 04:34:23;;;;;;;5.95;4.07;;;;;;;16.56;63.81;100156.78;4941579;29;20048;-93
2021/09/05 04:36:50;;;;;;;7.82;3.88;;;;;;;16.58;63.57;100153.09;4940474;29;20078;-93
2021/09/05 04:39:17;;;;;;;7.38;3.45;;;;;;;16.52;63.95;100150.94;4934814;29;20135;-92
2021/09/05 04:41:46;;;;;;;7.50;4.07;;;;;;;16.53;63.89;100155.25;4922337;29;20040;-92
2021/09/05 04:44:13;;;;;;;6.15;3.30;;;;;;;16.45;64.41;100155.81;4928606;29;20047;-95
2021/09/05 04:46:39;;;;;;;5.47;4.35;;;;;;;16.57;63.84;100156.69;4943464;29;20044;-94
2021/09/05 04:49:07;;;;;;;5.97;3.65;;;;;;;16.62;63.07;100161.56;4940690;29;20051;-92
2021/09/05 04:51:34;;;;;;;4.93;3.92;;;;;;;16.59;63.57;100162.66;4954742;29;20403;-93
2021/09/05 04:54:02;;;;;;;6.75;4.10;;;;;;;16.59;63.60;100162.66;4924419;29;20087;-91
2021/09/05 04:56:29;;;;;;;4.82;3.63;;;;;;;17.01;62.53;100155.09;4939338;29;20043;-92
2021/09/05 04:58:56;;;;;;;7.85;3.65;;;;;;;16.99;62.49;100156.97;4940113;29;20051;-90
2021/09/05 05:01:24;;;;;;;5.22;3.63;;;;;;;16.98;62.55;100161.41;4939389;29;20048;-91
2021/09/05 05:03:51;;;;;;;8.00;4.32;;;;;;;17.06;62.22;100152.94;4940236;29;20466;-92
2021/09/05 05:06:38;;;;;;;5.57;4.05;;;;;;;17.21;61.46;100164.91;4923642;29;20044;-91
2021/09/05 05:09:05;;;;;;;4.43;3.75;;;;;;;17.55;60.27;100159.56;4939973;29;20051;-92
2021/09/05 05:11:31;;;;;;;6.80;3.78;;;;;;;17.59;60.15;100162.81;4943806;29;20052;-93
2021/09/05 05:13:58;;;;;;;9.52;3.70;;;;;;;17.84;59.02;100166.94;4947125;29;20102;-93
2021/09/05 05:16:25;;;;;;;5.72;3.83;;;;;;;18.07;58.39;100179.09;4927334;29;20099;-94
2021/09/05 05:18:52;;;;;;;6.93;3.17;;;;;;;18.28;57.90;100176.47;4939260;29;20044;-87
2021/09/05 05:21:19;;;;;;;5.65;3.83;;;;;;;18.61;56.34;100172.81;4937696;29;20051;-88
2021/09/05 05:23:45;;;;;;;6.22;3.92;;;;;;;18.95;55.93;100178.72;4937702;29;20056;-86
2021/09/05 05:26:12;;;;;;;9.88;3.80;;;;;;;19.14;54.90;100179.78;4938261;29;20055;-87
2021/09/05 05:28:39;;;;;;;4.88;3.80;;;;;;;19.28;54.26;100180.25;4937596;29;20052;-87
2021/09/05 05:31:06;;;;;;;6.90;4.25;;;;;;;19.40;53.61;100185.44;4921214;29;20099;-84
2021/09/05 05:33:33;;;;;;;5.38;3.20;;;;;;;19.62;53.25;100190.53;4938058;29;20074;-86
2021/09/05 05:36:00;;;;;;;6.25;4.18;;;;;;;19.82;53.18;100191.41;4919587;29;20514;-86
2021/09/05 05:38:33;;;;;;;8.88;4.05;;;;;;;19.69;53.54;100204.88;4955848;28;20031;-94
2021/09/05 05:42:10;;;;;;;8.55;5.30;;;;;;;19.71;52.88;100208.22;4944645;29;20106;-94
2021/09/05 05:44:44;;;;;;;8.05;4.43;;;;;;;19.90;53.24;100204.75;4942487;29;20106;-96
2021/09/05 05:47:11;;;;;;;7.43;3.85;;;;;;;19.96;52.99;100213.97;4966501;29;20051;-91
2021/09/05 05:49:40;;;;;;;6.55;4.13;;;;;;;19.89;52.68;100211.88;4940307;29;20076;-92
2021/09/05 05:52:07;;;;;;;4.38;3.95;;;;;;;20.24;52.07;100213.16;4944178;29;20043;-86
2021/09/05 05:54:33;;;;;;;5.80;3.85;;;;;;;20.15;52.75;100219.28;4937310;29;20070;-85
2021/09/05 05:57:00;;;;;;;6.30;5.70;;;;;;;19.68;53.45;100226.16;4935249;29;20039;-89
2021/09/05 05:59:52;;;;;;;6.13;5.55;;;;;;;19.19;54.37;100236.53;4926757;29;20632;-95
2021/09/05 06:02:19;;;;;;;9.10;5.65;;;;;;;19.60;53.10;100232.97;4937671;29;20042;-87
2021/09/05 06:04:47;;;;;;;6.65;5.95;;;;;;;20.36;51.10;100237.66;4918770;29;20509;-91
2021/09/05 06:07:13;;;;;;;12.00;5.97;;;;;;;20.18;51.58;100240.16;4933971;29;20550;-90
2021/09/05 06:09:43;;;;;;;8.20;6.05;;;;;;;20.76;50.00;100239.31;4932461;29;20475;-88
2021/09/05 06:12:10;;;;;;;6.05;5.47;;;;;;;21.37;48.41;100236.25;4933914;29;20039;-92
2021/09/05 06:14:37;;;;;;;13.93;6.63;;;;;;;21.42;48.51;100244.59;4939741;29;20112;-91
2021/09/05 06:17:04;;;;;;;6.50;5.13;;;;;;;21.19;49.05;100241.44;4943997;29;20043;-90
2021/09/05 06:19:31;;;;;;;7.38;6.68;;;;;;;21.17;49.15;100238.09;4932852;29;20098;-85
2021/09/05 06:21:58;;;;;;;10.40;5.70;;;;;;;21.71;48.91;100239.13;4945738;29;20044;-90
2021/09/05 06:24:24;;;;;;;9.63;4.97;;;;;;;21.66;48.33;100239.56;4936325;29;20043;-91
2021/09/05 06:26:51;;;;;;;11.48;5.65;;;;;;;21.30;49.16;100243.09;4937414;29;20387;-88
2021/09/05 06:29:19;;;;;;;8.43;5.47;;;;;;;20.71;52.35;100246.84;4935885;29;20399;-92
2021/09/05 06:31:46;;;;;;;5.85;5.05;;;;;;;20.49;52.77;100243.53;4914404;29;20040;-89
2021/09/05 06:34:12;;;;;;;9.52;5.07;;;;;;;20.80;51.94;100243.38;4924375;29;20043;-86
2021/09/05 06:36:39;;;;;;;9.75;5.32;;;;;;;20.67;52.64;100244.50;4923312;29;20051;-85
2021/09/05 06:39:06;;;;;;;6.10;4.72;;;;;;;20.70;52.49;100248.66;4904531;29;20039;-84
2021/09/05 06:41:33;;;;;;;7.80;5.32;;;;;;;20.67;51.83;100246.31;4924210;29;20056;-81
2021/09/05 06:43:59;;;;;;;11.05;6.00;;;;;;;20.79;51.59;100250.47;4922904;29;20085;-82
2021/09/05 06:46:28;;;;;;;6.93;5.47;;;;;;;20.84;50.87;100239.47;4924202;29;20395;-81
2021/09/05 06:48:55;;;;;;;8.57;5.30;;;;;;;20.58;51.36;100241.88;4927705;29;20031;-84
2021/09/05 06:51:23;;;;;;;11.68;5.45;;;;;;;20.48;51.59;100246.34;4936522;29;20036;-78
2021/09/05 06:53:50;;;;;;;12.68;6.50;;;;;;;20.78;50.82;100248.81;4932349;29;20099;-82
2021/09/05 06:56:17;;;;;;;14.13;7.72;;;;;;;21.06;49.93;100244.41;4930653;29;20056;-79
2021/09/05 06:58:44;;;;;;;8.23;7.43;;;;;;;21.02;50.18;100244.84;4929505;29;20485;-84
2021/09/05 07:01:10;;;;;;;12.55;7.20;;;;;;;21.18;49.50;100239.78;4921617;29;20065;-85
2021/09/05 07:03:37;;;;;;;7.47;6.65;;;;;;;21.39;49.50;100248.38;4918354;29;20052;-81
2021/09/05 07:06:05;;;;;;;7.15;6.45;;;;;;;21.35;49.19;100246.16;4925094;29;20126;-80
2021/09/05 07:08:36;;;;;;;7.13;4.95;;;;;;;21.07;49.85;100251.38;4922468;29;20055;-87
2021/09/05 07:11:03;;;;;;;5.82;4.47;;;;;;;21.60;49.26;100253.44;4924185;29;20469;-88
2021/09/05 07:13:30;;;;;;;5.50;3.72;;;;;;;21.60;49.32;100249.94;4932927;29;20043;-84
2021/09/05 07:15:57;;;;;;;5.50;4.20;;;;;;;21.87;47.59;100249.09;4929662;29;20071;-80
2021/09/05 07:18:24;;;;;;;5.45;4.57;;;;;;;21.73;47.61;100250.41;4931882;29;20400;-84
2021/09/05 07:20:51;;;;;;;6.68;4.50;;;;;;;21.68;47.46;100248.25;4926812;29;20040;-86
2021/09/05 07:23:18;;;;;;;4.53;3.83;;;;;;;21.69;47.47;100251.72;4922312;29;20084;-80
2021/09/05 07:25:47;;;;;;;10.23;5.15;;;;;;;22.14;46.66;100254.38;4926917;29;20067;-86
2021/09/05 07:28:13;;;;;;;5.18;4.68;;;;;;;22.03;46.66;100253.75;4923657;29;20464;-82
2021/09/05 07:30:43;;;;;;;7.28;4.97;;;;;;;22.12;46.45;100255.53;4925145;29;20486;-81
2021/09/05 07:33:10;;;;;;;4.57;3.72;;;;;;;21.87;46.70;100263.19;4924698;29;20040;-82
2021/09/05 07:35:36;;;;;;;7.25;4.60;;;;;;;22.07;46.72;100263.09;4931764;29;20051;-83
2021/09/05 07:38:03;;;;;;;6.85;4.05;;;;;;;22.04;46.21;100261.56;4931132;29;20112;-80
2021/09/05 07:40:30;;;;;;;4.55;4.13;;;;;;;22.09;46.17;100261.09;4934511;29;20044;-82
2021/09/05 07:42:58;;;;;;;7.50;4.28;;;;;;;22.17;46.21;100267.38;4915649;29;20050;-79
2021/09/05 07:45:25;;;;;;;4.70;4.20;;;;;;;22.37;45.89;100269.84;4937461;29;20471;-80
2021/09/05 07:47:51;;;;;;;7.22;4.72;;;;;;;22.56;45.62;100266.22;4940822;29;20542;-82
2021/09/05 07:50:18;;;;;;;5.63;4.25;;;;;;;22.74;45.35;100272.34;4932988;29;20038;-83
2021/09/05 07:52:45;;;;;;;8.73;4.22;;;;;;;22.60;45.91;100273.72;4935671;29;20044;-83
2021/09/05 07:55:12;;;;;;;7.50;4.65;;;;;;;22.61;45.18;100277.22;4939692;29;20390;-83
2021/09/05 07:57:39;;;;;;;7.05;4.20;;;;;;;22.64;45.32;100287.56;4935429;29;20484;-83
2021/09/05 08:00:06;;;;;;;8.57;4.22;;;;;;;22.80;45.27;100285.03;4932272;29;20558;-80
2021/09/05 08:02:38;;;;;;;5.97;5.30;;;;;;;23.05;44.61;100290.53;4935849;28;20046;-83
2021/09/05 08:05:05;;;;;;;6.20;5.60;;;;;;;22.91;45.07;100294.59;4945949;29;20047;-82
2021/09/05 08:07:32;;;;;;;7.13;4.88;;;;;;;22.76;45.01;100294.28;4921170;29;20044;-82
2021/09/05 08:09:59;;;;;;;7.03;4.47;;;;;;;22.97;44.81;100296.63;4943304;29;20553;-83
2021/09/05 08:12:26;;;;;;;7.53;4.70;;;;;;;22.67;45.78;100287.22;4931391;29;20059;-83
2021/09/05 08:14:52;;;;;;;5.50;4.60;;;;;;;22.81;46.79;100296.50;4940098;29;20154;-82
2021/09/05 08:17:19;;;;;;;5.35;4.25;;;;;;;22.90;45.49;100299.06;4941117;29;20470;-83
2021/09/05 08:19:48;;;;;;;5.97;4.72;;;;;;;22.65;46.45;100302.50;4939932;29;20046;-82
2021/09/05 08:22:15;;;;;;;6.82;4.80;;;;;;;22.91;46.57;100302.59;4940264;29;20379;-83
2021/09/05 08:24:42;;;;;;;5.88;4.85;;;;;;;22.85;46.04;100305.81;4940355;29;20157;-82
2021/09/05 08:27:08;;;;;;;8.02;5.45;;;;;;;22.86;46.70;100308.31;4944710;29;20055;-82
2021/09/05 08:29:36;;;;;;;5.65;4.95;;;;;;;22.60;47.03;100296.81;4936782;29;20630;-82
2021/09/05 08:32:03;;;;;;;8.25;6.32;;;;;;;22.85;47.05;100301.34;4939901;29;20071;-82
2021/09/05 08:34:34;;;;;;;5.32;4.80;;;;;;;23.03;46.04;100303.16;4940518;29;20047;-83
2021/09/05 08:37:01;;;;;;;7.43;5.10;;;;;;;22.79;46.10;100296.63;4941043;29;20046;-83
2021/09/05 08:39:28;;;;;;;7.75;4.90;;;;;;;23.28;45.48;100307.66;4945473;29;20558;-81
2021/09/05 08:41:57;;;;;;;5.25;4.40;;;;;;;23.18;45.50;100302.44;4938468;29;20046;-83
2021/09/05 08:44:25;;;;;;;6.30;5.40;;;;;;;22.94;45.80;100310.22;4943387;29;20047;-82
2021/09/05 08:46:53;;;;;;;5.30;4.78;;;;;;;23.05;45.96;100306.47;4943983;29;20068;-83
2021/09/05 08:49:32;;;;;;;5.25;4.75;;;;;;;23.06;45.46;100311.63;4921163;29;20487;-82
2021/09/05 08:51:59;;;;;;;8.45;5.30;;;;;;;23.16;45.55;100303.56;4951756;29;20026;-83
2021/09/05 08:54:27;;;;;;;6.20;5.53;;;;;;;23.30;45.19;100310.97;4959552;29;20128;-83
2021/09/05 08:56:55;;;;;;;7.00;6.05;;;;;;;23.13;45.97;100309.22;4949363;29;20044;-80
2021/09/05 08:59:22;;;;;;;17.48;4.78;;;;;;;23.42;45.75;100317.69;4940011;29;20048;-79
2021/09/05 09:01:59;;;;;;;5.90;4.95;;;;;;;23.42;45.71;100308.88;4944370;29;20098;-82
2021/09/05 09:04:36;;;;;;;8.57;5.68;;;;;;;23.56;45.37;100315.44;4923477;29;20051;-82
2021/09/05 09:07:14;;;;;;;8.45;5.60;;;;;;;23.38;45.71;100318.16;4933503;29;20058;-82
2021/09/05 09:09:51;;;;;;;6.05;4.85;;;;;;;23.49;45.47;100317.91;4925124;29;20442;-82
2021/09/05 09:12:40;;;;;;;7.40;6.25;;;;;;;23.35;45.91;100321.16;4935871;28;20417;-82
2021/09/05 09:15:25;;;;;;;7.57;5.10;;;;;;;23.53;45.10;100322.72;4940789;29;20051;-82
2021/09/05 09:18:00;;;;;;;8.73;5.20;;;;;;;23.51;44.50;100319.41;4931858;29;20056;-82
2021/09/05 09:20:34;;;;;;;5.95;5.35;;;;;;;23.57;44.52;100322.44;4940107;28;20047;-82
2021/09/05 09:23:13;;;;;;;12.52;4.93;;;;;;;23.53;44.61;100317.41;4935958;29;20048;-83
2021/09/05 09:25:51;;;;;;;13.13;5.05;;;;;;;23.76;44.57;100323.06;4935931;29;20095;-82
2021/09/05 09:28:22;;;;;;;7.15;4.97;;;;;;;24.01;44.12;100321.31;4930348;29;20040;-81
2021/09/05 09:30:49;;;;;;;17.65;6.28;;;;;;;24.10;44.01;100330.16;4936975;29;20040;-84
2021/09/05 09:33:21;;;;;;;12.68;7.20;;;;;;;23.62;44.63;100325.44;4937272;29;20447;-86
2021/09/05 09:35:57;;;;;;;11.02;6.28;;;;;;;23.88;44.46;100318.28;4919962;29;20055;-85
2021/09/05 09:38:24;;;;;;;7.35;5.45;;;;;;;23.60;44.88;100317.63;4921216;29;20153;-89
2021/09/05 09:41:04;;;;;;;7.68;4.90;;;;;;;23.98;44.08;100326.13;4936951;29;20039;-89
2021/09/05 09:43:31;;;;;;;5.45;4.85;;;;;;;23.95;44.49;100318.47;4917573;29;20043;-85
2021/09/05 09:46:12;;;;;;;8.48;6.03;;;;;;;23.75;45.07;100323.19;4935476;29;20047;-87
2021/09/05 09:48:44;;;;;;;7.78;7.07;;;;;;;23.79;45.02;100322.72;4936113;29;20047;-84
2021/09/05 09:51:12;;;;;;;9.02;6.90;;;;;;;24.20;44.37;100324.69;4934894;29;20031;-83
2021/09/05 09:53:40;;;;;;;6.75;6.00;;;;;;;24.01;44.52;100320.47;4935005;29;20091;-85
2021/09/05 09:56:09;;;;;;;6.97;5.50;;;;;;;24.23;43.71;100322.53;4933389;29;20051;-84
2021/09/05 09:58:36;;;;;;;6.78;5.88;;;;;;;24.37;43.66;100323.75;4935830;29;20139;-82
2021/09/05 10:01:04;;;;;;;6.68;5.95;;;;;;;24.12;44.32;100322.00;4935921;29;20048;-82
2021/09/05 10:03:32;;;;;;;8.07;5.28;;;;;;;24.12;44.54;100322.00;4931821;29;20046;-80
2021/09/05 10:06:01;;;;;;;8.80;6.45;;;;;;;24.24;44.87;100320.72;4932619;29;20494;-80
2021/09/05 10:08:30;;;;;;;10.70;7.43;;;;;;;24.57;43.76;100313.63;4934940;29;20133;-81
2021/09/05 10:10:59;;;;;;;8.98;6.93;;;;;;;24.28;43.71;100314.88;4936573;29;20040;-86
2021/09/05 10:13:29;;;;;;;6.65;6.05;;;;;;;24.53;42.93;100307.78;4937313;29;20071;-81
2021/09/05 10:15:57;;;;;;;9.23;5.97;;;;;;;24.58;43.50;100317.97;4932203;29;20067;-82
2021/09/05 10:18:24;;;;;;;8.02;7.00;;;;;;;24.71;43.68;100301.47;4935424;29;20114;-82
2021/09/05 10:20:52;;;;;;;17.52;15.15;;;;;;;24.78;43.31;100303.31;4937585;29;20046;-82
2021/09/05 10:23:29;;;;;;;14.20;7.75;;;;;;;24.91;43.38;100310.78;4939066;29;20054;-82
2021/09/05 10:26:03;;;;;;;8.82;5.95;;;;;;;24.95;40.06;100305.97;4937448;29;20046;-77
2021/09/05 10:28:54;;;;;;;8.43;6.20;;;;;;;25.04;40.67;100307.63;4932560;29;20047;-84
2021/09/05 10:31:36;;;;;;;5.80;5.22;;;;;;;24.92;41.48;100301.78;4930224;29;20040;-84
2021/09/05 10:34:04;;;;;;;6.57;5.97;;;;;;;25.02;40.32;100305.09;4930131;29;20047;-84
2021/09/05 10:36:42;;;;;;;8.55;6.70;;;;;;;25.32;41.60;100289.41;4932150;29;20071;-81
2021/09/05 10:39:09;;;;;;;9.88;6.10;;;;;;;25.42;41.89;100300.72;4948703;29;20056;-83
2021/09/05 10:41:50;;;;;;;14.77;6.72;;;;;;;25.24;40.82;100298.25;4929924;29;20102;-86
2021/09/05 10:44:18;;;;;;;7.50;5.60;;;;;;;25.41;40.27;100293.75;4935076;29;20051;-81
2021/09/05 10:46:51;;;;;;;7.35;4.70;;;;;;;24.95;40.77;100290.78;4934995;29;20046;-81
2021/09/05 10:49:38;;;;;;;5.55;5.00;;;;;;;25.24;39.79;100300.09;4915989;29;20048;-83
2021/09/05 10:52:05;;;;;;;9.88;6.15;;;;;;;25.27;40.87;100305.09;4932112;29;20102;-82
2021/09/05 10:54:43;;;;;;;7.68;5.07;;;;;;;25.44;40.92;100303.22;4923523;29;20208;-81
2021/09/05 10:57:10;;;;;;;11.20;6.90;;;;;;;25.16;41.14;100310.81;4946672;29;20040;-81
2021/09/05 10:59:39;;;;;;;13.95;5.72;;;;;;;25.36;41.06;100293.41;4948089;29;20110;-77
2021/09/05 11:02:05;;;;;;;5.45;4.95;;;;;;;25.25;40.67;100299.13;4934497;29;20040;-82
2021/09/05 11:04:43;;;;;;;8.30;5.15;;;;;;;25.75;40.09;100295.31;4934347;29;20073;-81
2021/09/05 11:07:28;;;;;;;7.55;5.13;;;;;;;25.69;39.63;100295.97;4933615;29;20202;-84
2021/09/05 11:09:55;;;;;;;7.95;5.25;;;;;;;25.51;39.71;100294.34;4930788;29;20099;-82
2021/09/05 11:12:38;;;;;;;6.15;5.55;;;;;;;25.86;40.23;100290.41;4934452;29;20036;-82
2021/09/05 11:15:09;;;;;;;7.75;5.68;;;;;;;26.29;39.20;100281.97;4931863;29;20063;-85
2021/09/05 11:17:36;;;;;;;7.57;4.85;;;;;;;26.04;39.16;100279.44;4932647;29;20450;-87
2021/09/05 11:20:09;;;;;;;5.75;5.20;;;;;;;26.04;38.71;100290.13;4932564;29;20083;-84
2021/09/05 11:22:41;;;;;;;17.15;6.45;;;;;;;26.07;39.06;100284.44;4932557;29;20055;-82
2021/09/05 11:25:08;;;;;;;7.57;5.18;;;;;;;25.79;39.65;100280.59;4928055;29;20051;-89
2021/09/05 11:27:47;;;;;;;5.93;5.32;;;;;;;26.25;39.00;100286.81;4931923;29;20035;-82
2021/09/05 11:30:18;;;;;;;6.15;5.43;;;;;;;26.21;38.70;100280.19;4933973;29;20459;-85
2021/09/05 11:32:46;;;;;;;7.50;4.78;;;;;;;26.45;39.35;100289.91;4934910;29;20139;-83
2021/09/05 11:35:14;;;;;;;7.50;5.45;;;;;;;26.88;38.42;100283.00;4934716;29;20043;-82
2021/09/05 11:37:45;;;;;;;7.93;5.30;;;;;;;26.21;38.81;100282.03;4931425;29;20039;-83
2021/09/05 11:40:15;;;;;;;7.25;5.20;;;;;;;26.33;38.89;100281.44;4935648;29;20043;-86
2021/09/05 11:42:53;;;;;;;7.03;5.18;;;;;;;26.36;39.15;100282.91;4933094;29;20039;-85
2021/09/05 11:45:26;;;;;;;6.88;5.65;;;;;;;26.30;39.48;100272.94;4933282;29;20226;-83
2021/09/05 11:48:01;;;;;;;8.27;6.20;;;;;;;26.51;38.88;100280.34;4934696;29;20078;-87
2021/09/05 11:50:29;;;;;;;5.80;5.18;;;;;;;26.19;38.37;100273.34;4934960;29;20076;-87
2021/09/05 11:52:56;;;;;;;9.13;6.18;;;;;;;26.70;38.13;100269.16;4934953;29;20044;-82
2021/09/05 11:55:24;;;;;;;11.80;5.75;;;;;;;26.56;38.49;100273.44;4936460;29;20046;-86
2021/09/05 11:57:58;;;;;;;7.70;4.57;;;;;;;26.52;37.80;100268.63;4935819;29;20549;-87